sensor_id;sensor_type;location;lat;lon;timestamp;pressure;altitude;pressure_sealevel;temperature;humidity
35291;BME280;21411;50.024;19.220;2023-11-19T00:00:27;99475.08;;;1.30;100.00
35291;BME280;21411;50.024;19.220;2023-11-19T00:03:13;99473.39;;;1.27;100.00
35291;BME280;21411;50.024;19.220;2023-11-19T00:05:40;99468.13;;;1.20;100.00
35291;BME280;21411;50.024;19.220;2023-11-19T00:08:08;99469.52;;;1.13;100.00
35291;BME280;21411;50.024;19.220;2023-11-19T00:10:35;99473.45;;;1.09;100.00
35291;BME280;21411;50.024;19.220;2023-11-19T00:13:01;99473.48;;;1.07;100.00
35291;BME280;21411;50.024;19.220;2023-11-19T00:15:29;99474.23;;;1.04;100.00
35291;BME280;21411;50.024;19.220;2023-11-19T00:17:55;99469.39;;;1.02;100.00
35291;BME280;21411;50.024;19.220;2023-11-19T00:20:22;99466.79;;;1.00;100.00
35291;BME280;21411;50.024;19.220;2023-11-19T00:22:48;99463.17;;;0.98;100.00
35291;BME280;21411;50.024;19.220;2023-11-19T00:25:19;99457.30;;;0.94;100.00
35291;BME280;21411;50.024;19.220;2023-11-19T00:27:45;99450.94;;;0.89;100.00
35291;BME280;21411;50.024;19.220;2023-11-19T00:30:13;99453.43;;;0.86;100.00
35291;BME280;21411;50.024;19.220;2023-11-19T00:32:40;99449.09;;;0.85;100.00
35291;BME280;21411;50.024;19.220;2023-11-19T00:35:08;99439.90;;;0.80;100.00
35291;BME280;21411;50.024;19.220;2023-11-19T00:37:34;99436.63;;;0.78;100.00
35291;BME280;21411;50.024;19.220;2023-11-19T00:40:01;99439.27;;;0.77;100.00
35291;BME280;21411;50.024;19.220;2023-11-19T00:42:31;99435.27;;;0.76;100.00
35291;BME280;21411;50.024;19.220;2023-11-19T00:44:58;99438.98;;;0.75;100.00
35291;BME280;21411;50.024;19.220;2023-11-19T00:47:25;99436.19;;;0.74;100.00
35291;BME280;21411;50.024;19.220;2023-11-19T00:49:51;99432.70;;;0.74;100.00
35291;BME280;21411;50.024;19.220;2023-11-19T00:52:19;99433.05;;;0.74;100.00
35291;BME280;21411;50.024;19.220;2023-11-19T00:54:45;99435.88;;;0.72;100.00
35291;BME280;21411;50.024;19.220;2023-11-19T00:57:12;99434.67;;;0.71;100.00
35291;BME280;21411;50.024;19.220;2023-11-19T00:59:41;99434.34;;;0.71;100.00
35291;BME280;21411;50.024;19.220;2023-11-19T01:02:08;99434.83;;;0.72;100.00
35291;BME280;21411;50.024;19.220;2023-11-19T01:04:35;99432.23;;;0.71;100.00
35291;BME280;21411;50.024;19.220;2023-11-19T01:07:03;99426.31;;;0.70;100.00
35291;BME280;21411;50.024;19.220;2023-11-19T01:09:32;99423.15;;;0.70;100.00
35291;BME280;21411;50.024;19.220;2023-11-19T01:12:01;99426.64;;;0.71;100.00
35291;BME280;21411;50.024;19.220;2023-11-19T01:14:28;99425.89;;;0.73;100.00
35291;BME280;21411;50.024;19.220;2023-11-19T01:16:55;99429.36;;;0.74;100.00
35291;BME280;21411;50.024;19.220;2023-11-19T01:19:22;99427.63;;;0.74;100.00
35291;BME280;21411;50.024;19.220;2023-11-19T01:21:50;99433.42;;;0.72;100.00
35291;BME280;21411;50.024;19.220;2023-11-19T01:24:17;99429.25;;;0.72;100.00
35291;BME280;21411;50.024;19.220;2023-11-19T01:26:44;99423.92;;;0.75;100.00
35291;BME280;21411;50.024;19.220;2023-11-19T01:29:16;99419.83;;;0.78;100.00
35291;BME280;21411;50.024;19.220;2023-11-19T01:31:43;99419.27;;;0.80;100.00
35291;BME280;21411;50.024;19.220;2023-11-19T01:34:11;99420.95;;;0.83;100.00
35291;BME280;21411;50.024;19.220;2023-11-19T01:36:38;99420.23;;;0.85;100.00
35291;BME280;21411;50.024;19.220;2023-11-19T01:39:06;99418.83;;;0.85;100.00
35291;BME280;21411;50.024;19.220;2023-11-19T01:41:36;99409.38;;;0.85;100.00
35291;BME280;21411;50.024;19.220;2023-11-19T01:44:02;99392.77;;;0.85;100.00
35291;BME280;21411;50.024;19.220;2023-11-19T01:46:30;99388.92;;;0.84;100.00
35291;BME280;21411;50.024;19.220;2023-11-19T01:49:00;99390.32;;;0.84;100.00
35291;BME280;21411;50.024;19.220;2023-11-19T01:51:27;99396.63;;;0.84;100.00
35291;BME280;21411;50.024;19.220;2023-11-19T01:53:55;99392.98;;;0.83;100.00
35291;BME280;21411;50.024;19.220;2023-11-19T01:56:23;99374.64;;;0.81;100.00
35291;BME280;21411;50.024;19.220;2023-11-19T01:58:51;99363.98;;;0.82;100.00
35291;BME280;21411;50.024;19.220;2023-11-19T02:01:19;99359.77;;;0.81;100.00
35291;BME280;21411;50.024;19.220;2023-11-19T02:03:46;99354.98;;;0.85;100.00
35291;BME280;21411;50.024;19.220;2023-11-19T02:06:13;99346.36;;;0.87;100.00
35291;BME280;21411;50.024;19.220;2023-11-19T02:08:40;99341.13;;;0.86;100.00
35291;BME280;21411;50.024;19.220;2023-11-19T02:11:07;99341.33;;;0.85;100.00
35291;BME280;21411;50.024;19.220;2023-11-19T02:13:34;99333.46;;;0.85;100.00
35291;BME280;21411;50.024;19.220;2023-11-19T02:16:04;99323.90;;;0.82;100.00
35291;BME280;21411;50.024;19.220;2023-11-19T02:18:30;99317.70;;;0.78;100.00
35291;BME280;21411;50.024;19.220;2023-11-19T02:20:58;99311.33;;;0.74;100.00
35291;BME280;21411;50.024;19.220;2023-11-19T02:23:27;99308.84;;;0.69;100.00
35291;BME280;21411;50.024;19.220;2023-11-19T02:28:49;99294.75;;;0.56;100.00
35291;BME280;21411;50.024;19.220;2023-11-19T02:31:16;99283.75;;;0.48;100.00
35291;BME280;21411;50.024;19.220;2023-11-19T02:33:42;99273.36;;;0.43;100.00
35291;BME280;21411;50.024;19.220;2023-11-19T02:36:09;99265.08;;;0.38;100.00
35291;BME280;21411;50.024;19.220;2023-11-19T02:38:36;99259.92;;;0.34;100.00
35291;BME280;21411;50.024;19.220;2023-11-19T02:41:03;99254.06;;;0.30;100.00
35291;BME280;21411;50.024;19.220;2023-11-19T02:43:32;99249.81;;;0.25;100.00
35291;BME280;21411;50.024;19.220;2023-11-19T02:46:03;99248.17;;;0.18;100.00
35291;BME280;21411;50.024;19.220;2023-11-19T02:48:37;99242.35;;;0.14;100.00
35291;BME280;21411;50.024;19.220;2023-11-19T02:51:04;99238.89;;;0.11;100.00
35291;BME280;21411;50.024;19.220;2023-11-19T02:53:31;99228.79;;;0.10;100.00
35291;BME280;21411;50.024;19.220;2023-11-19T02:55:58;99218.69;;;0.09;100.00
35291;BME280;21411;50.024;19.220;2023-11-19T02:58:32;99211.76;;;0.06;100.00
35291;BME280;21411;50.024;19.220;2023-11-19T03:00:59;99212.73;;;0.02;100.00
35291;BME280;21411;50.024;19.220;2023-11-19T03:03:36;99217.73;;;-0.04;100.00
35291;BME280;21411;50.024;19.220;2023-11-19T03:06:07;99217.31;;;-0.09;100.00
35291;BME280;21411;50.024;19.220;2023-11-19T03:08:36;99206.44;;;-0.15;100.00
35291;BME280;21411;50.024;19.220;2023-11-19T03:11:02;99187.15;;;-0.20;100.00
35291;BME280;21411;50.024;19.220;2023-11-19T03:13:31;99181.80;;;-0.24;100.00
35291;BME280;21411;50.024;19.220;2023-11-19T03:15:57;99193.20;;;-0.25;100.00
35291;BME280;21411;50.024;19.220;2023-11-19T03:18:24;99196.00;;;-0.26;100.00
35291;BME280;21411;50.024;19.220;2023-11-19T03:20:50;99198.98;;;-0.27;100.00
35291;BME280;21411;50.024;19.220;2023-11-19T03:23:18;99197.30;;;-0.30;100.00
35291;BME280;21411;50.024;19.220;2023-11-19T03:25:45;99193.52;;;-0.33;100.00
35291;BME280;21411;50.024;19.220;2023-11-19T03:28:11;99190.13;;;-0.38;100.00
35291;BME280;21411;50.024;19.220;2023-11-19T03:30:38;99186.87;;;-0.40;100.00
35291;BME280;21411;50.024;19.220;2023-11-19T03:33:04;99177.69;;;-0.45;100.00
35291;BME280;21411;50.024;19.220;2023-11-19T03:35:31;99165.88;;;-0.48;100.00
35291;BME280;21411;50.024;19.220;2023-11-19T03:37:59;99160.55;;;-0.52;100.00
35291;BME280;21411;50.024;19.220;2023-11-19T03:40:26;99162.19;;;-0.55;100.00
35291;BME280;21411;50.024;19.220;2023-11-19T03:42:52;99164.01;;;-0.59;100.00
35291;BME280;21411;50.024;19.220;2023-11-19T03:45:19;99165.11;;;-0.63;100.00
35291;BME280;21411;50.024;19.220;2023-11-19T03:47:45;99167.11;;;-0.66;100.00
35291;BME280;21411;50.024;19.220;2023-11-19T03:50:12;99169.94;;;-0.68;100.00
35291;BME280;21411;50.024;19.220;2023-11-19T03:52:38;99162.77;;;-0.69;100.00
35291;BME280;21411;50.024;19.220;2023-11-19T03:55:05;99140.79;;;-0.69;100.00
35291;BME280;21411;50.024;19.220;2023-11-19T03:57:32;99120.17;;;-0.66;100.00
35291;BME280;21411;50.024;19.220;2023-11-19T03:59:58;99115.94;;;-0.64;100.00
35291;BME280;21411;50.024;19.220;2023-11-19T04:02:25;99111.21;;;-0.63;100.00
35291;BME280;21411;50.024;19.220;2023-11-19T04:04:54;99112.60;;;-0.63;100.00
35291;BME280;21411;50.024;19.220;2023-11-19T04:07:21;99108.78;;;-0.64;100.00
35291;BME280;21411;50.024;19.220;2023-11-19T04:09:48;99104.77;;;-0.64;100.00
35291;BME280;21411;50.024;19.220;2023-11-19T04:12:14;99099.73;;;-0.65;100.00
35291;BME280;21411;50.024;19.220;2023-11-19T04:14:41;99097.45;;;-0.64;100.00
35291;BME280;21411;50.024;19.220;2023-11-19T04:17:08;99090.23;;;-0.61;100.00
35291;BME280;21411;50.024;19.220;2023-11-19T04:19:34;99079.75;;;-0.60;100.00
35291;BME280;21411;50.024;19.220;2023-11-19T04:22:01;99078.48;;;-0.58;100.00
35291;BME280;21411;50.024;19.220;2023-11-19T04:24:28;99079.11;;;-0.55;100.00
35291;BME280;21411;50.024;19.220;2023-11-19T04:26:54;99087.08;;;-0.52;100.00
35291;BME280;21411;50.024;19.220;2023-11-19T04:29:21;99087.05;;;-0.51;100.00
35291;BME280;21411;50.024;19.220;2023-11-19T04:31:47;99080.53;;;-0.48;100.00
35291;BME280;21411;50.024;19.220;2023-11-19T04:34:14;99077.70;;;-0.46;100.00
35291;BME280;21411;50.024;19.220;2023-11-19T04:36:40;99079.27;;;-0.46;100.00
35291;BME280;21411;50.024;19.220;2023-11-19T04:39:07;99073.36;;;-0.47;100.00
35291;BME280;21411;50.024;19.220;2023-11-19T04:41:48;99068.34;;;-0.49;100.00
35291;BME280;21411;50.024;19.220;2023-11-19T04:44:16;99068.05;;;-0.51;100.00
35291;BME280;21411;50.024;19.220;2023-11-19T04:46:42;99066.18;;;-0.54;100.00
35291;BME280;21411;50.024;19.220;2023-11-19T04:49:12;99061.71;;;-0.57;100.00
35291;BME280;21411;50.024;19.220;2023-11-19T04:51:40;99060.73;;;-0.61;100.00
35291;BME280;21411;50.024;19.220;2023-11-19T04:54:08;99062.77;;;-0.66;100.00
35291;BME280;21411;50.024;19.220;2023-11-19T04:56:36;99061.98;;;-0.71;100.00
35291;BME280;21411;50.024;19.220;2023-11-19T04:59:06;99062.58;;;-0.74;100.00
35291;BME280;21411;50.024;19.220;2023-11-19T05:01:33;99064.22;;;-0.77;100.00
35291;BME280;21411;50.024;19.220;2023-11-19T05:04:00;99057.99;;;-0.80;100.00
35291;BME280;21411;50.024;19.220;2023-11-19T05:06:28;99053.66;;;-0.81;100.00
35291;BME280;21411;50.024;19.220;2023-11-19T05:08:56;99053.14;;;-0.82;100.00
35291;BME280;21411;50.024;19.220;2023-11-19T05:11:22;99052.28;;;-0.83;100.00
35291;BME280;21411;50.024;19.220;2023-11-19T05:13:49;99046.73;;;-0.84;100.00
35291;BME280;21411;50.024;19.220;2023-11-19T05:16:16;99042.36;;;-0.84;100.00
35291;BME280;21411;50.024;19.220;2023-11-19T05:18:44;99045.66;;;-0.83;100.00
35291;BME280;21411;50.024;19.220;2023-11-19T05:21:11;99050.35;;;-0.82;100.00
35291;BME280;21411;50.024;19.220;2023-11-19T05:23:37;99047.91;;;-0.81;100.00
35291;BME280;21411;50.024;19.220;2023-11-19T05:26:04;99047.52;;;-0.80;100.00
35291;BME280;21411;50.024;19.220;2023-11-19T05:28:31;99043.81;;;-0.78;100.00
35291;BME280;21411;50.024;19.220;2023-11-19T05:30:57;99036.42;;;-0.75;100.00
35291;BME280;21411;50.024;19.220;2023-11-19T05:33:24;99028.55;;;-0.74;100.00
35291;BME280;21411;50.024;19.220;2023-11-19T05:35:50;99019.92;;;-0.70;100.00
35291;BME280;21411;50.024;19.220;2023-11-19T05:38:17;99012.19;;;-0.67;100.00
35291;BME280;21411;50.024;19.220;2023-11-19T05:40:43;99007.11;;;-0.66;100.00
35291;BME280;21411;50.024;19.220;2023-11-19T05:43:10;99001.48;;;-0.64;100.00
35291;BME280;21411;50.024;19.220;2023-11-19T05:45:37;98999.02;;;-0.63;100.00
35291;BME280;21411;50.024;19.220;2023-11-19T05:48:03;98999.21;;;-0.63;100.00
35291;BME280;21411;50.024;19.220;2023-11-19T05:50:31;98997.15;;;-0.65;100.00
35291;BME280;21411;50.024;19.220;2023-11-19T05:52:57;98991.60;;;-0.67;100.00
35291;BME280;21411;50.024;19.220;2023-11-19T05:55:24;98985.73;;;-0.70;100.00
35291;BME280;21411;50.024;19.220;2023-11-19T05:57:51;98985.45;;;-0.73;100.00
35291;BME280;21411;50.024;19.220;2023-11-19T06:00:18;98988.95;;;-0.74;100.00
35291;BME280;21411;50.024;19.220;2023-11-19T06:02:44;99000.60;;;-0.72;100.00
35291;BME280;21411;50.024;19.220;2023-11-19T06:05:11;99010.14;;;-0.70;100.00
35291;BME280;21411;50.024;19.220;2023-11-19T06:07:38;99015.48;;;-0.67;100.00
35291;BME280;21411;50.024;19.220;2023-11-19T06:10:05;99018.57;;;-0.63;100.00
35291;BME280;21411;50.024;19.220;2023-11-19T06:12:36;99012.02;;;-0.59;100.00
35291;BME280;21411;50.024;19.220;2023-11-19T06:15:05;98998.50;;;-0.55;100.00
35291;BME280;21411;50.024;19.220;2023-11-19T06:17:32;98998.54;;;-0.50;100.00
35291;BME280;21411;50.024;19.220;2023-11-19T06:19:59;99001.53;;;-0.43;100.00
35291;BME280;21411;50.024;19.220;2023-11-19T06:22:25;99006.77;;;-0.35;100.00
35291;BME280;21411;50.024;19.220;2023-11-19T06:24:52;99003.84;;;-0.29;100.00
35291;BME280;21411;50.024;19.220;2023-11-19T06:27:18;99000.92;;;-0.24;100.00
35291;BME280;21411;50.024;19.220;2023-11-19T06:29:45;98992.27;;;-0.19;100.00
35291;BME280;21411;50.024;19.220;2023-11-19T06:32:12;98984.09;;;-0.13;100.00
35291;BME280;21411;50.024;19.220;2023-11-19T06:34:38;98980.09;;;-0.06;100.00
35291;BME280;21411;50.024;19.220;2023-11-19T06:37:05;98973.13;;;0.00;100.00
35291;BME280;21411;50.024;19.220;2023-11-19T06:39:32;98964.93;;;0.07;100.00
35291;BME280;21411;50.024;19.220;2023-11-19T06:41:58;98954.77;;;0.14;100.00
35291;BME280;21411;50.024;19.220;2023-11-19T06:44:24;98947.23;;;0.22;100.00
35291;BME280;21411;50.024;19.220;2023-11-19T06:46:51;98942.46;;;0.31;100.00
35291;BME280;21411;50.024;19.220;2023-11-19T06:49:17;98933.69;;;0.39;100.00
35291;BME280;21411;50.024;19.220;2023-11-19T06:51:44;98927.35;;;0.48;100.00
35291;BME280;21411;50.024;19.220;2023-11-19T06:54:12;98922.54;;;0.57;100.00
35291;BME280;21411;50.024;19.220;2023-11-19T06:56:39;98924.04;;;0.66;100.00
35291;BME280;21411;50.024;19.220;2023-11-19T06:59:05;98924.00;;;0.74;100.00
35291;BME280;21411;50.024;19.220;2023-11-19T07:01:36;98923.13;;;0.80;100.00
35291;BME280;21411;50.024;19.220;2023-11-19T07:04:03;98925.71;;;0.87;100.00
35291;BME280;21411;50.024;19.220;2023-11-19T07:06:35;98925.48;;;0.95;100.00
35291;BME280;21411;50.024;19.220;2023-11-19T07:09:05;98918.80;;;1.02;100.00
35291;BME280;21411;50.024;19.220;2023-11-19T07:11:39;98914.74;;;1.09;100.00
35291;BME280;21411;50.024;19.220;2023-11-19T07:14:07;98914.93;;;1.15;100.00
35291;BME280;21411;50.024;19.220;2023-11-19T07:16:34;98909.71;;;1.19;100.00
35291;BME280;21411;50.024;19.220;2023-11-19T07:19:01;98907.82;;;1.24;100.00
35291;BME280;21411;50.024;19.220;2023-11-19T07:21:28;98919.75;;;1.29;100.00
35291;BME280;21411;50.024;19.220;2023-11-19T07:23:55;98930.63;;;1.33;100.00
35291;BME280;21411;50.024;19.220;2023-11-19T07:26:22;98917.23;;;1.37;100.00
35291;BME280;21411;50.024;19.220;2023-11-19T07:28:51;98896.50;;;1.39;100.00
35291;BME280;21411;50.024;19.220;2023-11-19T07:31:18;98897.09;;;1.43;100.00
35291;BME280;21411;50.024;19.220;2023-11-19T07:33:48;98912.78;;;1.45;100.00
35291;BME280;21411;50.024;19.220;2023-11-19T07:36:14;98916.89;;;1.48;100.00
35291;BME280;21411;50.024;19.220;2023-11-19T07:38:41;98908.05;;;1.51;100.00
35291;BME280;21411;50.024;19.220;2023-11-19T07:41:07;98908.70;;;1.52;100.00
35291;BME280;21411;50.024;19.220;2023-11-19T07:43:45;98907.89;;;1.56;100.00
35291;BME280;21411;50.024;19.220;2023-11-19T07:46:13;98902.27;;;1.62;100.00
35291;BME280;21411;50.024;19.220;2023-11-19T07:48:40;98895.61;;;1.67;100.00
35291;BME280;21411;50.024;19.220;2023-11-19T07:51:07;98890.36;;;1.73;100.00
35291;BME280;21411;50.024;19.220;2023-11-19T07:53:34;98894.77;;;1.78;100.00
35291;BME280;21411;50.024;19.220;2023-11-19T07:56:00;98896.83;;;1.84;100.00
35291;BME280;21411;50.024;19.220;2023-11-19T07:58:27;98892.55;;;1.91;100.00
35291;BME280;21411;50.024;19.220;2023-11-19T08:00:54;98883.37;;;1.99;100.00
35291;BME280;21411;50.024;19.220;2023-11-19T08:03:20;98864.34;;;2.07;100.00
35291;BME280;21411;50.024;19.220;2023-11-19T08:05:48;98851.60;;;2.15;100.00
35291;BME280;21411;50.024;19.220;2023-11-19T08:08:15;98844.20;;;2.22;100.00
35291;BME280;21411;50.024;19.220;2023-11-19T08:10:41;98846.89;;;2.25;100.00
35291;BME280;21411;50.024;19.220;2023-11-19T08:13:08;98836.86;;;2.30;100.00
35291;BME280;21411;50.024;19.220;2023-11-19T08:15:34;98822.95;;;2.37;100.00
35291;BME280;21411;50.024;19.220;2023-11-19T08:18:01;98814.27;;;2.44;100.00
35291;BME280;21411;50.024;19.220;2023-11-19T08:20:28;98814.62;;;2.54;100.00
35291;BME280;21411;50.024;19.220;2023-11-19T08:22:55;98817.71;;;2.60;100.00
35291;BME280;21411;50.024;19.220;2023-11-19T08:25:21;98819.78;;;2.61;100.00
35291;BME280;21411;50.024;19.220;2023-11-19T08:27:48;98812.72;;;2.62;100.00
35291;BME280;21411;50.024;19.220;2023-11-19T08:30:14;98810.80;;;2.67;100.00
35291;BME280;21411;50.024;19.220;2023-11-19T08:32:41;98815.83;;;2.73;100.00
35291;BME280;21411;50.024;19.220;2023-11-19T08:35:07;98824.49;;;2.76;100.00
35291;BME280;21411;50.024;19.220;2023-11-19T08:37:34;98823.89;;;2.78;100.00
35291;BME280;21411;50.024;19.220;2023-11-19T08:40:03;98821.23;;;2.78;100.00
35291;BME280;21411;50.024;19.220;2023-11-19T08:42:30;98814.51;;;2.80;100.00
35291;BME280;21411;50.024;19.220;2023-11-19T08:44:57;98816.17;;;2.78;100.00
35291;BME280;21411;50.024;19.220;2023-11-19T08:47:23;98815.19;;;2.76;100.00
35291;BME280;21411;50.024;19.220;2023-11-19T08:49:51;98811.83;;;2.76;100.00
35291;BME280;21411;50.024;19.220;2023-11-19T08:52:18;98805.10;;;2.78;100.00
35291;BME280;21411;50.024;19.220;2023-11-19T08:54:45;98794.35;;;2.75;100.00
35291;BME280;21411;50.024;19.220;2023-11-19T08:57:11;98794.41;;;2.73;100.00
35291;BME280;21411;50.024;19.220;2023-11-19T08:59:38;98794.05;;;2.74;100.00
35291;BME280;21411;50.024;19.220;2023-11-19T09:02:05;98797.51;;;2.75;100.00
35291;BME280;21411;50.024;19.220;2023-11-19T09:04:33;98792.08;;;2.75;100.00
35291;BME280;21411;50.024;19.220;2023-11-19T09:06:59;98786.66;;;2.78;100.00
35291;BME280;21411;50.024;19.220;2023-11-19T09:09:26;98786.11;;;2.83;100.00
35291;BME280;21411;50.024;19.220;2023-11-19T09:11:52;98782.20;;;2.89;100.00
35291;BME280;21411;50.024;19.220;2023-11-19T09:14:19;98775.11;;;2.96;100.00
35291;BME280;21411;50.024;19.220;2023-11-19T09:16:50;98762.90;;;2.98;100.00
35291;BME280;21411;50.024;19.220;2023-11-19T09:19:17;98755.56;;;3.02;100.00
35291;BME280;21411;50.024;19.220;2023-11-19T09:21:43;98742.53;;;3.07;100.00
35291;BME280;21411;50.024;19.220;2023-11-19T09:24:10;98727.47;;;3.15;100.00
35291;BME280;21411;50.024;19.220;2023-11-19T09:26:36;98727.39;;;3.26;100.00
35291;BME280;21411;50.024;19.220;2023-11-19T09:29:05;98726.64;;;3.40;100.00
35291;BME280;21411;50.024;19.220;2023-11-19T09:31:32;98731.41;;;3.51;100.00
35291;BME280;21411;50.024;19.220;2023-11-19T09:33:58;98736.11;;;3.64;100.00
35291;BME280;21411;50.024;19.220;2023-11-19T09:36:25;98735.16;;;3.74;100.00
35291;BME280;21411;50.024;19.220;2023-11-19T09:38:51;98729.23;;;3.82;100.00
35291;BME280;21411;50.024;19.220;2023-11-19T09:41:18;98720.55;;;3.87;100.00
35291;BME280;21411;50.024;19.220;2023-11-19T09:43:45;98720.02;;;3.91;100.00
35291;BME280;21411;50.024;19.220;2023-11-19T09:46:16;98718.17;;;3.93;100.00
35291;BME280;21411;50.024;19.220;2023-11-19T09:48:44;98710.27;;;3.97;100.00
35291;BME280;21411;50.024;19.220;2023-11-19T09:51:11;98701.23;;;4.03;100.00
35291;BME280;21411;50.024;19.220;2023-11-19T09:53:38;98693.79;;;4.12;100.00
35291;BME280;21411;50.024;19.220;2023-11-19T09:56:05;98684.91;;;4.25;100.00
35291;BME280;21411;50.024;19.220;2023-11-19T09:58:32;98673.66;;;4.40;100.00
35291;BME280;21411;50.024;19.220;2023-11-19T10:00:59;98671.86;;;4.52;100.00
35291;BME280;21411;50.024;19.220;2023-11-19T10:03:27;98663.86;;;4.61;100.00
35291;BME280;21411;50.024;19.220;2023-11-19T10:05:55;98657.57;;;4.71;100.00
35291;BME280;21411;50.024;19.220;2023-11-19T10:08:23;98652.61;;;4.79;100.00
35291;BME280;21411;50.024;19.220;2023-11-19T10:10:49;98645.40;;;4.90;100.00
35291;BME280;21411;50.024;19.220;2023-11-19T10:13:16;98640.92;;;4.98;100.00
35291;BME280;21411;50.024;19.220;2023-11-19T10:15:43;98632.04;;;5.11;100.00
35291;BME280;21411;50.024;19.220;2023-11-19T10:18:10;98624.89;;;5.19;100.00
35291;BME280;21411;50.024;19.220;2023-11-19T10:20:37;98619.36;;;5.28;100.00
35291;BME280;21411;50.024;19.220;2023-11-19T10:23:03;98611.52;;;5.33;100.00
35291;BME280;21411;50.024;19.220;2023-11-19T10:25:31;98601.95;;;5.38;100.00
35291;BME280;21411;50.024;19.220;2023-11-19T10:27:59;98595.84;;;5.46;100.00
35291;BME280;21411;50.024;19.220;2023-11-19T10:30:28;98592.90;;;5.59;100.00
35291;BME280;21411;50.024;19.220;2023-11-19T10:33:12;98589.86;;;5.69;100.00
35291;BME280;21411;50.024;19.220;2023-11-19T10:36:10;98590.47;;;5.81;100.00
35291;BME280;21411;50.024;19.220;2023-11-19T10:38:39;98582.99;;;5.86;100.00
35291;BME280;21411;50.024;19.220;2023-11-19T10:41:06;98579.56;;;5.91;100.00
35291;BME280;21411;50.024;19.220;2023-11-19T10:43:43;98582.98;;;5.96;100.00
35291;BME280;21411;50.024;19.220;2023-11-19T10:46:12;98578.81;;;5.95;100.00
35291;BME280;21411;50.024;19.220;2023-11-19T10:48:39;98573.92;;;5.90;100.00
35291;BME280;21411;50.024;19.220;2023-11-19T10:51:07;98561.82;;;5.83;100.00
35291;BME280;21411;50.024;19.220;2023-11-19T10:53:36;98555.42;;;5.74;100.00
35291;BME280;21411;50.024;19.220;2023-11-19T10:56:06;98547.35;;;5.67;100.00
35291;BME280;21411;50.024;19.220;2023-11-19T10:58:35;98540.13;;;5.64;100.00
35291;BME280;21411;50.024;19.220;2023-11-19T11:01:19;98533.80;;;5.66;100.00
35291;BME280;21411;50.024;19.220;2023-11-19T11:03:47;98529.02;;;5.70;100.00
35291;BME280;21411;50.024;19.220;2023-11-19T11:06:14;98530.34;;;5.72;100.00
35291;BME280;21411;50.024;19.220;2023-11-19T11:08:41;98525.77;;;5.71;100.00
35291;BME280;21411;50.024;19.220;2023-11-19T11:11:09;98524.25;;;5.67;100.00
35291;BME280;21411;50.024;19.220;2023-11-19T11:13:42;98521.67;;;5.56;100.00
35291;BME280;21411;50.024;19.220;2023-11-19T11:16:09;98518.51;;;5.46;100.00
35291;BME280;21411;50.024;19.220;2023-11-19T11:18:35;98519.57;;;5.40;100.00
35291;BME280;21411;50.024;19.220;2023-11-19T11:21:11;98521.30;;;5.30;100.00
35291;BME280;21411;50.024;19.220;2023-11-19T11:35:30;98500.30;;;4.77;100.00
35291;BME280;21411;50.024;19.220;2023-11-19T11:38:08;98499.27;;;4.63;100.00
35291;BME280;21411;50.024;19.220;2023-11-19T11:40:35;98495.33;;;4.50;100.00
35291;BME280;21411;50.024;19.220;2023-11-19T11:43:02;98503.71;;;4.41;100.00
35291;BME280;21411;50.024;19.220;2023-11-19T11:45:39;98504.63;;;4.29;100.00
35291;BME280;21411;50.024;19.220;2023-11-19T11:48:10;98499.61;;;4.21;100.00
35291;BME280;21411;50.024;19.220;2023-11-19T11:50:57;98494.31;;;4.17;100.00
35291;BME280;21411;50.024;19.220;2023-11-19T11:53:25;98489.08;;;4.16;100.00
35291;BME280;21411;50.024;19.220;2023-11-19T11:55:53;98479.91;;;4.17;100.00
35291;BME280;21411;50.024;19.220;2023-11-19T11:58:26;98474.86;;;4.20;100.00
35291;BME280;21411;50.024;19.220;2023-11-19T12:00:53;98473.16;;;4.18;100.00
35291;BME280;21411;50.024;19.220;2023-11-19T12:03:21;98477.77;;;4.14;100.00
35291;BME280;21411;50.024;19.220;2023-11-19T12:05:48;98473.96;;;4.06;100.00
35291;BME280;21411;50.024;19.220;2023-11-19T12:08:18;98467.62;;;3.99;100.00
35291;BME280;21411;50.024;19.220;2023-11-19T12:10:49;98454.95;;;3.96;100.00
35291;BME280;21411;50.024;19.220;2023-11-19T12:13:17;98451.36;;;4.01;100.00
35291;BME280;21411;50.024;19.220;2023-11-19T12:18:26;98441.95;;;4.13;100.00
35291;BME280;21411;50.024;19.220;2023-11-19T12:20:56;98436.98;;;4.14;100.00
35291;BME280;21411;50.024;19.220;2023-11-19T12:23:23;98439.07;;;4.15;100.00
35291;BME280;21411;50.024;19.220;2023-11-19T12:25:50;98434.53;;;4.14;100.00
35291;BME280;21411;50.024;19.220;2023-11-19T12:28:17;98429.17;;;4.15;100.00
35291;BME280;21411;50.024;19.220;2023-11-19T12:30:44;98423.16;;;4.16;100.00
35291;BME280;21411;50.024;19.220;2023-11-19T12:33:11;98415.80;;;4.20;100.00
35291;BME280;21411;50.024;19.220;2023-11-19T12:35:43;98404.80;;;4.18;100.00
35291;BME280;21411;50.024;19.220;2023-11-19T12:38:20;98398.69;;;4.14;100.00
35291;BME280;21411;50.024;19.220;2023-11-19T12:41:09;98399.08;;;4.13;100.00
35291;BME280;21411;50.024;19.220;2023-11-19T12:43:38;98401.14;;;4.14;100.00
35291;BME280;21411;50.024;19.220;2023-11-19T12:48:44;98390.63;;;4.13;100.00
35291;BME280;21411;50.024;19.220;2023-11-19T12:51:10;98384.66;;;4.13;100.00
35291;BME280;21411;50.024;19.220;2023-11-19T12:53:51;98373.29;;;4.12;100.00
35291;BME280;21411;50.024;19.220;2023-11-19T12:56:21;98366.35;;;4.13;100.00
35291;BME280;21411;50.024;19.220;2023-11-19T12:58:48;98367.95;;;4.13;100.00
35291;BME280;21411;50.024;19.220;2023-11-19T13:01:16;98374.33;;;4.12;100.00
35291;BME280;21411;50.024;19.220;2023-11-19T13:03:46;98370.41;;;4.10;100.00
35291;BME280;21411;50.024;19.220;2023-11-19T13:06:15;98374.30;;;4.09;100.00
35291;BME280;21411;50.024;19.220;2023-11-19T13:08:46;98376.68;;;4.07;100.00
35291;BME280;21411;50.024;19.220;2023-11-19T13:11:30;98373.86;;;4.04;100.00